Time;durP1;ratioP1;P1;durP2;ratioP2;P2;SDS_P1;SDS_P2;PMS_P1;PMS_P2;Temp;Humidity;BMP_temperature;BMP_pressure;BME280_temperature;BME280_humidity;BME280_pressure;Samples;Min_cycle;Max_cycle;Signal;HPM_P1;HPM_P2
2023/10/26 00:00:51;;;;;;;3.42;2.75;;;;;;;-146.61;100.00;58846.50;5056855;28;20060;-78
2023/10/26 00:03:18;;;;;;;3.05;2.65;;;;;;;-146.61;100.00;58846.50;5057828;28;20041;-78
2023/10/26 00:05:44;;;;;;;3.03;2.10;;;;;;;-146.61;100.00;58846.50;5061640;28;20037;-79
2023/10/26 00:08:10;;;;;;;4.03;2.83;;;;;;;-146.61;100.00;58846.50;5051046;28;20787;-84
2023/10/26 00:10:41;;;;;;;2.88;2.67;;;;;;;-146.61;100.00;58846.50;5049342;28;20044;-81
2023/10/26 00:13:08;;;;;;;3.80;3.22;;;;;;;-146.61;100.00;58846.50;5047279;28;20041;-78
2023/10/26 00:15:34;;;;;;;3.58;3.28;;;;;;;-146.61;100.00;58846.50;5043847;28;20874;-78
2023/10/26 00:18:01;;;;;;;3.47;3.17;;;;;;;-146.61;100.00;58846.50;5034150;28;20488;-79
2023/10/26 00:20:27;;;;;;;4.78;3.55;;;;;;;-146.61;100.00;58846.50;5043841;28;20045;-81
2023/10/26 00:22:54;;;;;;;3.30;3.10;;;;;;;-146.61;100.00;58846.50;5041845;28;20481;-78
2023/10/26 00:25:20;;;;;;;6.15;3.92;;;;;;;-146.61;100.00;58846.50;5055403;28;20388;-78
2023/10/26 00:27:47;;;;;;;5.63;3.83;;;;;;;-146.61;100.00;58846.50;5040103;28;20048;-80
2023/10/26 00:30:13;;;;;;;3.53;3.22;;;;;;;-146.61;100.00;58846.50;5038746;28;20584;-82
2023/10/26 00:32:40;;;;;;;4.55;3.80;;;;;;;-146.61;100.00;58846.50;5044984;28;20048;-79
2023/10/26 00:35:07;;;;;;;4.25;3.92;;;;;;;-146.61;100.00;58846.50;5043464;28;20049;-80
2023/10/26 00:37:34;;;;;;;4.03;3.72;;;;;;;-146.61;100.00;58846.50;5051211;28;20036;-79
2023/10/26 00:40:00;;;;;;;4.47;4.07;;;;;;;-146.61;100.00;58846.50;5055686;28;20048;-79
2023/10/26 00:42:29;;;;;;;6.03;4.78;;;;;;;-146.61;100.00;58846.50;5042406;28;20146;-78
2023/10/26 00:44:58;;;;;;;5.85;5.10;;;;;;;-146.61;100.00;58846.50;5022249;28;20588;-79
2023/10/26 00:47:26;;;;;;;4.78;4.38;;;;;;;-146.61;100.00;58846.50;5033762;28;20039;-80
2023/10/26 00:49:54;;;;;;;5.97;4.72;;;;;;;-146.61;100.00;58846.50;5048440;28;20053;-79
2023/10/26 00:52:21;;;;;;;4.78;4.38;;;;;;;-146.61;100.00;58846.50;5047742;28;20037;-79
2023/10/26 00:54:48;;;;;;;5.60;4.90;;;;;;;-146.61;100.00;58846.50;5041824;28;20037;-78
2023/10/26 00:57:17;;;;;;;5.05;4.55;;;;;;;-146.61;100.00;58846.50;5045059;28;20036;-79
2023/10/26 00:59:45;;;;;;;4.80;4.50;;;;;;;-146.61;100.00;58846.50;5056167;28;20044;-81
2023/10/26 01:02:13;;;;;;;6.15;5.25;;;;;;;-146.61;100.00;58846.50;5040297;28;20135;-82
2023/10/26 01:04:40;;;;;;;5.68;5.18;;;;;;;-146.61;100.00;58846.50;5039258;28;20040;-83
2023/10/26 01:07:06;;;;;;;5.95;5.35;;;;;;;-146.61;100.00;58846.50;5049834;28;20044;-82
2023/10/26 01:09:33;;;;;;;6.05;4.80;;;;;;;-146.61;100.00;58846.50;5034517;28;20045;-80
2023/10/26 01:11:59;;;;;;;4.55;4.15;;;;;;;-146.61;100.00;58846.50;5034154;28;20133;-79
2023/10/26 01:14:27;;;;;;;4.95;4.45;;;;;;;-146.61;100.00;58846.50;5046041;28;20144;-79
2023/10/26 01:16:55;;;;;;;5.25;4.75;;;;;;;-146.61;100.00;58846.50;5033491;28;20053;-79
2023/10/26 01:19:21;;;;;;;5.70;4.47;;;;;;;-146.61;100.00;58846.50;5038350;28;20120;-81
2023/10/26 01:21:52;;;;;;;4.75;4.32;;;;;;;-146.61;100.00;58846.50;5050492;28;20036;-81
2023/10/26 01:24:19;;;;;;;4.63;4.20;;;;;;;-146.61;100.00;58846.50;5054439;28;20033;-84
2023/10/26 01:26:45;;;;;;;4.82;4.43;;;;;;;-146.61;100.00;58846.50;5047000;28;20044;-79
2023/10/26 01:29:14;;;;;;;5.13;4.40;;;;;;;-146.61;100.00;58846.50;5056384;28;20043;-80
2023/10/26 01:31:41;;;;;;;5.05;4.65;;;;;;;-146.61;100.00;58846.50;5045212;28;20102;-81
2023/10/26 01:34:07;;;;;;;5.07;4.63;;;;;;;-146.61;100.00;58846.50;5054577;28;20068;-81
2023/10/26 01:36:33;;;;;;;4.78;4.28;;;;;;;-146.61;100.00;58846.50;5041304;28;20104;-81
2023/10/26 01:39:01;;;;;;;3.78;3.47;;;;;;;-146.61;100.00;58846.50;5054182;28;20301;-79
2023/10/26 01:41:32;;;;;;;4.28;3.88;;;;;;;-146.61;100.00;58846.50;5051931;28;20037;-81
2023/10/26 01:43:58;;;;;;;4.10;3.80;;;;;;;-146.61;100.00;58846.50;5051311;28;20047;-79
2023/10/26 01:46:24;;;;;;;4.22;3.92;;;;;;;-146.61;100.00;58846.50;5047064;28;20056;-81
2023/10/26 01:48:51;;;;;;;4.32;3.92;;;;;;;-146.61;100.00;58846.50;5048616;28;20048;-82
2023/10/26 01:51:19;;;;;;;4.55;4.25;;;;;;;-146.61;100.00;58846.50;5051523;28;20037;-80
2023/10/26 01:53:45;;;;;;;4.85;4.38;;;;;;;-146.61;100.00;58846.50;5047360;28;20082;-81
2023/10/26 01:56:15;;;;;;;4.25;3.75;;;;;;;-146.61;100.00;58846.50;5058077;28;20131;-81
2023/10/26 01:58:41;;;;;;;5.20;4.80;;;;;;;-146.61;100.00;58846.50;5056447;28;20055;-81
2023/10/26 02:01:07;;;;;;;4.20;3.90;;;;;;;-146.61;100.00;58846.50;5050991;28;20055;-83
2023/10/26 02:03:34;;;;;;;4.97;4.47;;;;;;;-146.61;100.00;58846.50;5055751;28;20040;-79
2023/10/26 02:06:00;;;;;;;5.32;4.85;;;;;;;-146.61;100.00;58846.50;5026090;28;20055;-78
2023/10/26 02:08:26;;;;;;;7.00;5.18;;;;;;;-146.61;100.00;58846.50;5059536;28;20047;-80
2023/10/26 02:10:53;;;;;;;5.40;4.90;;;;;;;-146.61;100.00;58846.50;5047419;28;20047;-81
2023/10/26 02:13:19;;;;;;;5.72;5.22;;;;;;;-146.61;100.00;58846.50;5040860;28;20049;-79
2023/10/26 02:15:46;;;;;;;6.35;5.75;;;;;;;-146.61;100.00;58846.50;5047445;28;20158;-81
2023/10/26 02:18:15;;;;;;;8.13;5.93;;;;;;;-146.61;100.00;58846.50;5055019;28;20090;-85
2023/10/26 02:20:41;;;;;;;7.03;6.00;;;;;;;-146.61;100.00;58846.50;5050594;28;20041;-80
2023/10/26 02:23:08;;;;;;;7.03;5.55;;;;;;;-146.61;100.00;58846.50;5054205;28;20048;-80
2023/10/26 02:25:35;;;;;;;6.60;5.57;;;;;;;-146.61;100.00;58846.50;5047184;28;20987;-80
2023/10/26 02:28:01;;;;;;;8.43;6.50;;;;;;;-146.61;100.00;58846.50;5050665;28;20048;-82
2023/10/26 02:30:28;;;;;;;6.63;6.03;;;;;;;-146.61;100.00;58846.50;5049491;28;20049;-84
2023/10/26 02:32:54;;;;;;;8.82;5.82;;;;;;;-146.61;100.00;58846.50;5048567;28;20069;-79
2023/10/26 02:35:23;;;;;;;5.82;5.28;;;;;;;-146.61;100.00;58846.50;5051737;28;20047;-81
2023/10/26 02:37:49;;;;;;;7.90;7.13;;;;;;;-146.61;100.00;58846.50;5051153;28;20119;-79
2023/10/26 02:40:16;;;;;;;6.70;6.10;;;;;;;-146.61;100.00;58846.50;5052169;28;20156;-82
2023/10/26 02:42:42;;;;;;;6.10;5.50;;;;;;;-146.61;100.00;58846.50;5043041;28;20075;-79
2023/10/26 02:45:12;;;;;;;7.70;6.93;;;;;;;-146.61;100.00;58846.50;5058811;28;20041;-79
2023/10/26 02:47:38;;;;;;;7.30;6.70;;;;;;;-146.61;100.00;58846.50;5046841;28;20130;-79
2023/10/26 02:50:06;;;;;;;6.93;6.22;;;;;;;-146.61;100.00;58846.50;5044714;28;20099;-79
2023/10/26 02:52:33;;;;;;;7.55;6.88;;;;;;;-146.61;100.00;58846.50;5050241;28;20125;-78
2023/10/26 02:54:59;;;;;;;6.95;6.35;;;;;;;-146.61;100.00;58846.50;5041533;28;20041;-78
2023/10/26 02:57:26;;;;;;;7.60;6.90;;;;;;;-146.61;100.00;58846.50;5053436;28;20049;-79
2023/10/26 02:59:52;;;;;;;7.53;6.90;;;;;;;-146.61;100.00;58846.50;5043429;28;20042;-79
2023/10/26 03:02:19;;;;;;;7.43;6.75;;;;;;;-146.61;100.00;58846.50;5042877;28;20045;-80
2023/10/26 03:04:45;;;;;;;6.60;6.00;;;;;;;-146.61;100.00;58846.50;5051892;28;20052;-78
2023/10/26 03:07:12;;;;;;;5.70;5.20;;;;;;;-146.61;100.00;58846.50;5046186;28;20068;-80
2023/10/26 03:09:40;;;;;;;7.82;6.38;;;;;;;-146.61;100.00;58846.50;5048041;28;20051;-83
2023/10/26 03:12:10;;;;;;;6.75;6.00;;;;;;;-146.61;100.00;58846.50;5040488;28;20067;-83
2023/10/26 03:14:36;;;;;;;6.15;5.65;;;;;;;-146.61;100.00;58846.50;5055256;28;20117;-79
2023/10/26 03:17:03;;;;;;;5.93;5.32;;;;;;;-146.61;100.00;58846.50;5060739;28;20045;-82
2023/10/26 03:19:29;;;;;;;6.15;5.53;;;;;;;-146.61;100.00;58846.50;5052124;28;20036;-81
2023/10/26 03:21:57;;;;;;;6.65;5.95;;;;;;;-146.61;100.00;58846.50;5044954;28;20052;-79
2023/10/26 03:24:23;;;;;;;6.82;6.05;;;;;;;-146.61;100.00;58846.50;5060309;28;20116;-80
2023/10/26 03:26:49;;;;;;;5.90;5.35;;;;;;;-146.61;100.00;58846.50;5043013;28;20771;-80
2023/10/26 03:29:16;;;;;;;6.65;5.57;;;;;;;-146.61;100.00;58846.50;5060785;28;20144;-79
2023/10/26 03:31:43;;;;;;;9.98;6.60;;;;;;;-146.61;100.00;58846.50;5050024;28;20143;-82
2023/10/26 03:34:15;;;;;;;6.30;5.70;;;;;;;-146.61;100.00;58846.50;5054189;28;20048;-80
2023/10/26 03:36:41;;;;;;;6.57;5.60;;;;;;;-146.61;100.00;58846.50;5054615;28;20044;-79
2023/10/26 03:39:07;;;;;;;6.28;5.68;;;;;;;-146.61;100.00;58846.50;5056572;28;20120;-80
2023/10/26 03:41:34;;;;;;;6.80;5.32;;;;;;;-146.61;100.00;58846.50;5040725;28;20049;-79
2023/10/26 03:44:00;;;;;;;5.78;5.22;;;;;;;-146.61;100.00;58846.50;5047636;28;20051;-79
2023/10/26 03:46:27;;;;;;;5.35;4.60;;;;;;;-146.61;100.00;58846.50;5059056;28;20127;-78
2023/10/26 03:48:53;;;;;;;5.68;5.18;;;;;;;-146.61;100.00;58846.50;5056643;28;20046;-79
2023/10/26 03:51:20;;;;;;;5.75;5.15;;;;;;;-146.61;100.00;58846.50;5055641;28;20064;-80
2023/10/26 03:53:49;;;;;;;5.00;4.60;;;;;;;-146.61;100.00;58846.50;5062782;28;20041;-78
2023/10/26 03:56:18;;;;;;;5.30;4.72;;;;;;;-146.61;100.00;58846.50;5054722;28;20052;-78
2023/10/26 03:58:45;;;;;;;5.30;4.82;;;;;;;-146.61;100.00;58846.50;5055125;28;20704;-79
2023/10/26 04:01:12;;;;;;;4.38;3.97;;;;;;;-146.61;100.00;58846.50;5040900;28;20659;-81
2023/10/26 04:03:38;;;;;;;4.30;3.90;;;;;;;-146.61;100.00;58846.50;5049340;28;20464;-80
2023/10/26 04:06:05;;;;;;;4.85;4.35;;;;;;;-146.61;100.00;58846.50;5051392;28;20486;-79
2023/10/26 04:08:31;;;;;;;4.93;4.43;;;;;;;-146.61;100.00;58846.50;5057135;28;20051;-79
2023/10/26 04:10:58;;;;;;;4.70;4.30;;;;;;;-146.61;100.00;58846.50;5057941;28;20044;-82
2023/10/26 04:13:30;;;;;;;4.60;4.20;;;;;;;-146.61;100.00;58846.50;5037854;28;20076;-79
2023/10/26 04:16:03;;;;;;;4.35;3.95;;;;;;;-146.61;100.00;58846.50;5037834;28;20889;-78
2023/10/26 04:18:29;;;;;;;5.00;4.53;;;;;;;-146.61;100.00;58846.50;5038384;28;20512;-79
2023/10/26 04:20:56;;;;;;;4.38;3.85;;;;;;;-146.61;100.00;58846.50;5041576;28;20564;-80
2023/10/26 04:23:26;;;;;;;4.10;3.70;;;;;;;-146.61;100.00;58846.50;5042214;28;20514;-80
2023/10/26 04:25:55;;;;;;;5.38;4.38;;;;;;;-146.61;100.00;58846.50;5038007;28;20754;-79
2023/10/26 04:28:22;;;;;;;5.40;4.90;;;;;;;-146.61;100.00;58846.50;5037868;28;20049;-82
2023/10/26 04:30:53;;;;;;;4.40;4.00;;;;;;;-146.61;100.00;58846.50;5041399;28;20123;-78
2023/10/26 04:33:19;;;;;;;5.05;4.65;;;;;;;-146.61;100.00;58846.50;5041638;28;20039;-82
2023/10/26 04:35:47;;;;;;;4.28;3.97;;;;;;;-146.61;100.00;58846.50;5040000;28;20763;-78
2023/10/26 04:38:14;;;;;;;5.05;4.55;;;;;;;-146.61;100.00;58846.50;5017872;28;20485;-78
2023/10/26 04:40:42;;;;;;;5.55;4.75;;;;;;;-146.61;100.00;58846.50;5041808;28;20052;-79
2023/10/26 04:43:09;;;;;;;5.10;4.60;;;;;;;-146.61;100.00;58846.50;5022295;28;20398;-79
2023/10/26 04:45:36;;;;;;;5.57;4.80;;;;;;;-146.61;100.00;58846.50;5037815;28;20408;-79
2023/10/26 04:48:03;;;;;;;5.07;4.57;;;;;;;-146.61;100.00;58846.50;5037319;28;20048;-79
2023/10/26 04:50:30;;;;;;;7.28;5.20;;;;;;;-146.61;100.00;58846.50;5041015;28;20083;-78
2023/10/26 04:52:56;;;;;;;6.45;4.78;;;;;;;-146.61;100.00;58846.50;5040068;28;20052;-78
2023/10/26 04:55:22;;;;;;;5.90;5.18;;;;;;;-146.61;100.00;58846.50;5019549;28;20037;-80
2023/10/26 04:57:49;;;;;;;7.13;5.72;;;;;;;-146.61;100.00;58846.50;5036377;28;20060;-78
2023/10/26 05:00:17;;;;;;;5.57;4.78;;;;;;;-146.61;100.00;58846.50;5019717;28;20045;-81
2023/10/26 05:02:43;;;;;;;5.43;4.93;;;;;;;-146.61;100.00;58846.50;5034311;28;20042;-79
2023/10/26 05:05:10;;;;;;;6.15;5.53;;;;;;;-146.61;100.00;58846.50;5038392;28;20196;-80
2023/10/26 05:07:36;;;;;;;6.60;5.18;;;;;;;-146.61;100.00;58846.50;5016235;28;20041;-81
2023/10/26 05:10:10;;;;;;;5.97;4.85;;;;;;;-146.61;100.00;58846.50;5032668;28;20050;-80
2023/10/26 05:12:36;;;;;;;6.55;4.97;;;;;;;-146.61;100.00;58846.50;5054452;28;20056;-79
2023/10/26 05:15:07;;;;;;;5.72;5.10;;;;;;;-146.61;100.00;58846.50;5038028;28;20505;-78
2023/10/26 05:17:35;;;;;;;6.45;5.10;;;;;;;-146.61;100.00;58846.50;5056173;28;20108;-81
2023/10/26 05:20:03;;;;;;;5.28;4.78;;;;;;;-146.61;100.00;58846.50;5054851;28;20159;-78
2023/10/26 05:22:29;;;;;;;5.05;4.28;;;;;;;-146.61;100.00;58846.50;5045369;28;20044;-80
2023/10/26 05:24:56;;;;;;;5.68;4.38;;;;;;;-146.61;100.00;58846.50;5056609;28;20045;-79
2023/10/26 05:27:22;;;;;;;4.60;3.67;;;;;;;-146.61;100.00;58846.50;5055487;28;20131;-83
2023/10/26 05:29:49;;;;;;;5.20;4.68;;;;;;;-146.61;100.00;58846.50;5062654;28;20047;-78
2023/10/26 05:32:15;;;;;;;3.72;3.25;;;;;;;-146.61;100.00;58846.50;5060883;28;20045;-78
2023/10/26 05:34:45;;;;;;;3.75;3.45;;;;;;;-146.61;100.00;58846.50;5061425;28;20032;-77
2023/10/26 05:37:11;;;;;;;5.22;3.92;;;;;;;-146.61;100.00;58846.50;5065613;28;20564;-77
2023/10/26 05:39:38;;;;;;;4.20;3.80;;;;;;;-146.61;100.00;58846.50;5047117;28;20612;-80
2023/10/26 05:42:04;;;;;;;4.18;3.75;;;;;;;-146.61;100.00;58846.50;5063525;28;20072;-79
2023/10/26 05:44:31;;;;;;;3.28;3.08;;;;;;;-146.61;100.00;58846.50;5057331;28;20045;-79
2023/10/26 05:46:59;;;;;;;3.33;3.05;;;;;;;-146.61;100.00;58846.50;5057437;28;20055;-80
2023/10/26 05:49:25;;;;;;;2.97;2.70;;;;;;;-146.61;100.00;58846.50;5045192;28;20055;-79
2023/10/26 05:51:52;;;;;;;2.70;2.53;;;;;;;-146.61;100.00;58846.50;5064750;28;20039;-78
2023/10/26 05:54:18;;;;;;;2.80;2.60;;;;;;;-146.61;100.00;58846.50;5044645;28;20048;-80
2023/10/26 05:56:45;;;;;;;2.17;2.08;;;;;;;-146.61;100.00;58846.50;5057705;28;20067;-78
2023/10/26 05:59:12;;;;;;;2.70;2.50;;;;;;;-146.61;100.00;58846.50;5062398;28;20036;-81
2023/10/26 06:01:38;;;;;;;2.17;2.08;;;;;;;-146.61;100.00;58846.50;5032979;28;20047;-79
2023/10/26 06:04:05;;;;;;;3.65;2.70;;;;;;;-146.61;100.00;58846.50;5043631;28;20666;-78
2023/10/26 06:06:33;;;;;;;2.88;2.67;;;;;;;-146.61;100.00;58846.50;5060563;28;20051;-81
2023/10/26 06:08:59;;;;;;;3.55;3.25;;;;;;;-146.61;100.00;58846.50;5061268;28;20040;-79
2023/10/26 06:11:26;;;;;;;2.67;2.47;;;;;;;-146.61;100.00;58846.50;5062032;28;20068;-81
2023/10/26 06:13:53;;;;;;;2.63;2.47;;;;;;;-146.61;100.00;58846.50;5060806;28;20044;-77
2023/10/26 06:16:20;;;;;;;2.85;2.63;;;;;;;-146.61;100.00;58846.50;5060714;28;20432;-81
2023/10/26 06:18:46;;;;;;;2.40;2.28;;;;;;;-146.61;100.00;58846.50;5062197;28;20868;-80
2023/10/26 06:21:13;;;;;;;2.50;2.30;;;;;;;-146.61;100.00;58846.50;5057610;28;20048;-78
2023/10/26 06:23:39;;;;;;;2.67;2.20;;;;;;;-146.61;100.00;58846.50;5062005;28;20452;-78
2023/10/26 06:26:06;;;;;;;2.90;2.70;;;;;;;-146.61;100.00;58846.50;5060387;28;20041;-79
2023/10/26 06:28:32;;;;;;;2.60;2.50;;;;;;;-146.61;100.00;58846.50;5055210;28;20048;-82
2023/10/26 06:31:14;;;;;;;2.67;2.47;;;;;;;-146.61;100.00;58846.50;5064497;28;20087;-80
2023/10/26 06:33:41;;;;;;;3.67;2.70;;;;;;;-146.61;100.00;58846.50;5060944;28;20048;-80
2023/10/26 06:36:09;;;;;;;2.65;2.45;;;;;;;-146.61;100.00;58846.50;5057615;28;20484;-79
2023/10/26 06:38:35;;;;;;;3.47;3.25;;;;;;;-146.61;100.00;58846.50;5041164;28;20049;-82
2023/10/26 06:41:02;;;;;;;2.78;2.58;;;;;;;-146.61;100.00;58846.50;5042014;28;20087;-81
2023/10/26 06:43:30;;;;;;;2.08;1.98;;;;;;;-146.61;100.00;58846.50;5059111;28;20140;-81
2023/10/26 06:45:56;;;;;;;5.95;2.90;;;;;;;-146.61;100.00;58846.50;5050267;28;20040;-78
2023/10/26 06:48:23;;;;;;;2.47;2.38;;;;;;;-146.61;100.00;58846.50;5058625;28;20111;-77
2023/10/26 06:50:49;;;;;;;2.58;2.42;;;;;;;-146.61;100.00;58846.50;5059345;28;20040;-81
2023/10/26 06:53:19;;;;;;;2.88;2.67;;;;;;;-146.61;100.00;58846.50;5059867;28;20075;-84
2023/10/26 06:55:45;;;;;;;4.35;2.88;;;;;;;-146.61;100.00;58846.50;5062505;28;20061;-78
2023/10/26 06:58:11;;;;;;;2.40;2.20;;;;;;;-146.61;100.00;58846.50;5062027;28;20052;-78
2023/10/26 07:00:38;;;;;;;3.45;3.15;;;;;;;-146.61;100.00;58846.50;5047050;28;20040;-80
2023/10/26 07:03:04;;;;;;;3.38;2.38;;;;;;;-146.61;100.00;58846.50;5064295;28;20071;-79
2023/10/26 07:05:31;;;;;;;2.08;1.98;;;;;;;-146.61;100.00;58846.50;5059954;28;20044;-81
2023/10/26 07:07:59;;;;;;;2.47;2.28;;;;;;;-146.61;100.00;58846.50;5055400;28;20119;-82
2023/10/26 07:10:26;;;;;;;3.17;2.20;;;;;;;-146.61;100.00;58846.50;5050062;28;20059;-79
2023/10/26 07:12:56;;;;;;;2.75;2.55;;;;;;;-146.61;100.00;58846.50;5059801;28;20052;-79
2023/10/26 07:15:25;;;;;;;2.95;2.75;;;;;;;-146.61;100.00;58846.50;5063046;28;20597;-80
2023/10/26 07:17:51;;;;;;;2.42;2.13;;;;;;;-146.61;100.00;58846.50;5063690;28;20772;-78
2023/10/26 07:20:18;;;;;;;2.83;2.63;;;;;;;-146.61;100.00;58846.50;5059946;28;20067;-77
2023/10/26 07:22:45;;;;;;;2.53;2.42;;;;;;;-146.61;100.00;58846.50;5062951;28;20044;-78
2023/10/26 07:25:11;;;;;;;2.70;2.50;;;;;;;-146.61;100.00;58846.50;5066010;28;20431;-79
2023/10/26 07:27:38;;;;;;;2.40;2.13;;;;;;;-146.61;100.00;58846.50;5063748;28;20028;-78
2023/10/26 07:30:06;;;;;;;2.40;2.25;;;;;;;-146.61;100.00;58846.50;5061607;28;20056;-78
2023/10/26 07:32:33;;;;;;;2.75;2.55;;;;;;;-146.61;100.00;58846.50;5061290;28;20687;-78
2023/10/26 07:35:01;;;;;;;1.70;1.60;;;;;;;-146.61;100.00;58846.50;5058318;28;20503;-82
2023/10/26 07:37:29;;;;;;;2.85;2.63;;;;;;;-146.61;100.00;58846.50;5062194;28;20044;-85
2023/10/26 07:39:56;;;;;;;2.53;2.33;;;;;;;-146.61;100.00;58846.50;5056936;28;20067;-80
2023/10/26 07:42:22;;;;;;;2.65;2.35;;;;;;;-146.61;100.00;58846.50;5057221;28;20064;-80
2023/10/26 07:44:54;;;;;;;2.40;2.20;;;;;;;-146.61;100.00;58846.50;5057766;28;20041;-78
2023/10/26 07:47:20;;;;;;;2.30;2.13;;;;;;;-146.61;100.00;58846.50;5041643;28;20041;-79
2023/10/26 07:49:47;;;;;;;2.13;2.03;;;;;;;-146.61;100.00;58846.50;5052492;28;20048;-81
2023/10/26 07:52:14;;;;;;;2.72;2.53;;;;;;;-146.61;100.00;58846.50;5053701;28;20057;-79
2023/10/26 07:54:40;;;;;;;2.22;2.03;;;;;;;-146.61;100.00;58846.50;5050507;28;20139;-80
2023/10/26 07:57:06;;;;;;;2.17;1.98;;;;;;;-146.61;100.00;58846.50;5054011;28;20057;-80
2023/10/26 07:59:36;;;;;;;2.72;1.98;;;;;;;-146.61;100.00;58846.50;5054460;28;20072;-80
2023/10/26 08:02:05;;;;;;;3.30;2.80;;;;;;;-146.61;100.00;58846.50;5057989;28;20116;-82
2023/10/26 08:04:33;;;;;;;2.92;2.40;;;;;;;-146.61;100.00;58846.50;5055868;28;20162;-80
2023/10/26 08:07:00;;;;;;;2.88;2.67;;;;;;;-146.61;100.00;58846.50;5063120;28;20044;-81
2023/10/26 08:09:32;;;;;;;2.78;2.53;;;;;;;-146.61;100.00;58846.50;5059672;28;20058;-79
2023/10/26 08:11:59;;;;;;;2.28;2.08;;;;;;;-146.61;100.00;58846.50;5055047;28;20069;-82
2023/10/26 08:14:28;;;;;;;2.85;2.47;;;;;;;-146.61;100.00;58846.50;5055741;28;20485;-80
2023/10/26 08:16:56;;;;;;;3.53;2.83;;;;;;;-146.61;100.00;58846.50;5034487;28;23414;-80
2023/10/26 08:20:52;;;;;;;2.95;2.47;;;;;;;9.94;100.00;98796.25;5073595;27;180579;-79
2023/10/26 08:23:20;;;;;;;4.97;2.92;;;;;;;9.91;100.00;98805.06;5034754;28;204309;-79
2023/10/26 08:25:47;;;;;;;2.75;2.55;;;;;;;9.89;100.00;98801.66;5062403;28;20160;-80
2023/10/26 08:28:16;;;;;;;2.30;2.20;;;;;;;9.87;100.00;98800.88;5043052;28;20107;-79
2023/10/26 08:30:45;;;;;;;2.60;2.40;;;;;;;9.95;100.00;98811.03;5041982;28;20052;-82
2023/10/26 08:33:15;;;;;;;2.15;2.05;;;;;;;9.93;100.00;98805.00;5054887;28;20048;-80
2023/10/26 08:35:52;;;;;;;2.78;2.58;;;;;;;9.95;100.00;98797.97;5052111;28;20041;-80
2023/10/26 08:38:18;;;;;;;2.47;2.28;;;;;;;10.01;100.00;98809.97;5059422;28;20035;-79
2023/10/26 08:40:53;;;;;;;3.33;2.72;;;;;;;10.02;100.00;98806.44;5058245;28;20771;-79
2023/10/26 08:43:21;;;;;;;2.45;2.35;;;;;;;9.99;100.00;98807.41;5054060;28;20044;-80
2023/10/26 08:45:48;;;;;;;2.50;2.30;;;;;;;10.00;100.00;98803.03;5055292;28;20780;-79
2023/10/26 08:48:17;;;;;;;3.92;2.72;;;;;;;9.98;100.00;98807.47;5039633;28;20131;-83
2023/10/26 08:50:46;;;;;;;2.85;2.63;;;;;;;9.98;100.00;98805.69;5049162;28;20036;-79
2023/10/26 08:53:14;;;;;;;2.58;2.38;;;;;;;10.06;100.00;98818.50;5047742;28;20516;-78
2023/10/26 08:55:43;;;;;;;2.70;2.50;;;;;;;10.12;100.00;98813.03;5047557;28;20058;-79
2023/10/26 08:58:10;;;;;;;2.15;2.00;;;;;;;10.17;100.00;98813.72;5050758;28;20140;-83
2023/10/26 09:00:38;;;;;;;3.67;2.55;;;;;;;10.23;100.00;98808.28;5046909;28;20041;-78
2023/10/26 09:03:05;;;;;;;2.38;2.20;;;;;;;10.25;100.00;98816.91;5049373;28;20124;-84
2023/10/26 09:05:32;;;;;;;2.08;1.98;;;;;;;10.32;100.00;98803.59;5045129;28;20064;-85
2023/10/26 09:07:59;;;;;;;2.50;2.30;;;;;;;10.14;100.00;98812.97;5030038;28;20056;-82
2023/10/26 09:10:33;;;;;;;2.15;1.95;;;;;;;10.15;100.00;98812.91;5036072;28;20132;-81
2023/10/26 09:13:02;;;;;;;2.10;2.00;;;;;;;10.20;100.00;98808.38;5053440;28;20136;-82
2023/10/26 09:15:29;;;;;;;2.35;2.15;;;;;;;10.17;100.00;98818.97;5036633;28;20051;-79
2023/10/26 09:18:00;;;;;;;2.70;2.50;;;;;;;10.22;100.00;98818.78;5034093;28;20072;-83
2023/10/26 09:20:27;;;;;;;2.50;2.28;;;;;;;10.26;100.00;98818.63;5038498;28;20124;-82
2023/10/26 09:22:54;;;;;;;3.50;3.22;;;;;;;10.27;100.00;98822.94;5036171;28;20136;-81
2023/10/26 09:25:21;;;;;;;1.70;1.70;;;;;;;10.36;100.00;98823.53;5018912;28;20052;-84
2023/10/26 09:27:48;;;;;;;1.77;1.65;;;;;;;10.38;100.00;98816.50;5033950;28;20460;-79
2023/10/26 09:30:30;;;;;;;2.08;1.98;;;;;;;10.29;100.00;98809.81;5031548;28;20065;-84
2023/10/26 09:33:03;;;;;;;1.85;1.75;;;;;;;10.25;100.00;98811.66;5021775;28;20052;-83
2023/10/26 09:35:33;;;;;;;;;;;;;;;10.26;100.00;98804.69;5017811;28;20049;-80
2023/10/26 09:38:00;;;;;;;2.00;1.90;;;;;;;10.25;100.00;98809.06;5021987;28;20368;-78
2023/10/26 09:40:30;;;;;;;2.25;2.03;;;;;;;10.23;100.00;98812.63;5023223;28;20037;-81
2023/10/26 09:42:57;;;;;;;3.80;2.15;;;;;;;10.36;100.00;98816.53;5010671;28;20128;-79
2023/10/26 09:45:24;;;;;;;1.50;1.50;;;;;;;10.37;100.00;98812.16;5024826;28;20335;-80
2023/10/26 09:47:50;;;;;;;2.17;1.45;;;;;;;10.33;100.00;98816.63;5024971;28;20052;-81
2023/10/26 09:50:17;;;;;;;5.05;1.92;;;;;;;10.38;100.00;98827.78;5005329;28;20045;-82
2023/10/26 09:52:44;;;;;;;2.45;1.45;;;;;;;10.25;100.00;98827.38;5022350;28;20082;-78
2023/10/26 09:55:12;;;;;;;1.90;1.80;;;;;;;10.34;100.00;98831.41;5036293;28;20034;-80
2023/10/26 09:58:07;;;;;;;2.50;2.30;;;;;;;10.26;100.00;98836.91;5055243;28;20045;-78
2023/10/26 10:00:35;;;;;;;2.78;1.92;;;;;;;10.31;100.00;98843.75;5038264;28;20077;-85
2023/10/26 10:03:17;;;;;;;1.80;1.50;;;;;;;10.39;100.00;98845.19;5021366;28;20080;-78
2023/10/26 10:05:47;;;;;;;1.98;1.88;;;;;;;10.46;100.00;98842.38;5008281;28;20534;-81
2023/10/26 10:08:14;;;;;;;1.70;1.60;;;;;;;10.48;100.00;98837.91;5020817;28;20088;-80
2023/10/26 10:11:16;;;;;;;1.95;1.85;;;;;;;10.46;100.00;98837.97;5024054;28;20049;-82
2023/10/26 10:13:45;;;;;;;1.80;1.70;;;;;;;10.39;100.00;98837.34;5022627;28;20065;-79
2023/10/26 10:16:36;;;;;;;2.88;2.45;;;;;;;10.40;100.00;98838.19;5016124;28;20438;-82
2023/10/26 10:19:25;;;;;;;1.98;1.65;;;;;;;10.45;100.00;98845.88;5015881;28;20059;-78
2023/10/26 10:21:52;;;;;;;2.20;2.10;;;;;;;10.49;100.00;98845.69;5018301;28;20130;-81
2023/10/26 10:24:44;;;;;;;2.35;2.20;;;;;;;10.42;100.00;98844.22;5022177;28;20635;-77
2023/10/26 10:27:16;;;;;;;1.65;1.55;;;;;;;10.40;100.00;98844.28;5017558;28;20091;-81
2023/10/26 10:29:43;;;;;;;2.35;2.15;;;;;;;10.43;100.00;98848.56;5014288;28;20046;-78
2023/10/26 10:32:12;;;;;;;1.35;1.25;;;;;;;10.40;100.00;98849.53;5027410;28;20056;-80
2023/10/26 10:34:45;;;;;;;1.75;1.65;;;;;;;10.44;100.00;98839.78;5024123;28;20246;-79
2023/10/26 10:37:21;;;;;;;3.28;2.00;;;;;;;10.38;100.00;98843.50;4998864;28;20056;-80
2023/10/26 10:40:13;;;;;;;2.03;1.90;;;;;;;10.43;100.00;98851.19;5008150;28;20046;-79
2023/10/26 10:42:42;;;;;;;2.53;1.85;;;;;;;10.40;100.00;98843.44;5024244;28;20045;-82
2023/10/26 10:45:16;;;;;;;3.20;2.33;;;;;;;10.33;100.00;98852.41;5029672;28;20504;-80
2023/10/26 10:47:47;;;;;;;2.75;2.10;;;;;;;10.43;100.00;98851.19;5009306;28;20045;-78
2023/10/26 10:50:16;;;;;;;2.65;2.45;;;;;;;10.44;100.00;98855.47;5022440;28;20132;-79
2023/10/26 10:52:44;;;;;;;2.28;2.15;;;;;;;10.50;100.00;98849.19;5017798;28;20120;-80
2023/10/26 10:55:10;;;;;;;4.38;2.88;;;;;;;10.56;100.00;98846.34;5021231;28;20045;-80
2023/10/26 10:58:01;;;;;;;2.78;2.50;;;;;;;10.58;100.00;98849.72;5020441;28;20137;-84
2023/10/26 11:00:37;;;;;;;4.18;2.35;;;;;;;10.57;100.00;98842.78;5016862;28;20040;-81
2023/10/26 11:03:04;;;;;;;3.00;2.70;;;;;;;10.55;100.00;98845.47;5025336;28;20057;-78
2023/10/26 11:05:41;;;;;;;3.05;2.60;;;;;;;10.51;100.00;98846.50;5007686;28;20068;-81
2023/10/26 11:08:10;;;;;;;2.38;2.15;;;;;;;10.52;100.00;98847.34;5036632;28;20548;-79
2023/10/26 11:10:37;;;;;;;3.00;2.78;;;;;;;10.53;100.00;98847.31;5023121;28;20092;-86
2023/10/26 11:13:05;;;;;;;5.18;4.43;;;;;;;10.57;100.00;98856.75;5023342;28;20156;-79
2023/10/26 11:15:32;;;;;;;3.92;3.28;;;;;;;10.59;100.00;98856.69;5024313;28;20642;-79
2023/10/26 11:17:59;;;;;;;3.80;2.42;;;;;;;10.58;100.00;98858.41;5022316;28;20053;-80
2023/10/26 11:20:45;;;;;;;3.53;2.72;;;;;;;10.64;100.00;98862.59;5052245;28;20069;-83